Latest Weather Observations for Mildura

IDV60801

Issued at 4:42 am EDT Tuesday 21 January 2020 (issued every 10 minutes, with the page automatically refreshed every 10 minutes)

About weather observations | Map of weather stations | Latest weather observations for VIC | Other Formats
Station Details ID: 076031 Name: MILDURA AIRPORT Lat: -34.24 Lon: 142.09 Height: 50.0 m
Data from the previous 72 hours. | See also: Recent months at Mildura
Date/Time
EDT
Temp
°C
App
Temp
°C
Dew
Point
°C
Rel
Hum
%
Delta-T
°C
Wind Press
QNH
hPa
Press
MSL
hPa
Rain since
9am
mm
Dir  Spd
km/h
Gust
km/h
Spd
kts
Gust
kts
21/04:30am 15.2 14.3 11.2 77 2.1 SSW 7 11 4 6 1009.8 1009.6 0.2
21/04:00am 15.5 14.6 11.5 77 2.2 SW 7 11 4 6 1009.5 1009.3 0.2
21/03:30am 15.9 14.8 11.9 77 2.2 SW 9 15 5 8 1009.7 1009.5 0.2
21/03:00am 16.5 15.4 12.1 75 2.4 S 9 13 5 7 1009.5 1009.3 0.2
21/02:30am 16.9 15.9 12.2 74 2.6 S 9 13 5 7 1009.6 1009.4 0.2
21/02:00am 17.7 15.9 12.2 70 3.0 S 13 19 7 10 1009.7 1009.5 0.2
21/01:30am 17.8 17.4 12.5 71 2.9 SSW 6 9 3 5 1009.9 1009.7 0.2
21/01:00am 18.5 17.2 12.5 68 3.4 S 11 17 6 9 1009.7 1009.5 0.2
21/12:30am 19.2 17.6 12.7 66 3.7 S 13 22 7 12 1009.7 1009.5 0.2
21/12:00am 19.9 17.1 12.7 63 4.1 S 19 28 10 15 1009.3 1009.1 0.2
 
Date/Time
EDT
Temp
°C
App
Temp
°C
Dew
Point
°C
Rel
Hum
%
Delta-T
°C
Wind Press
QNH
hPa
Press
MSL
hPa
Rain since
9am
mm
Dir  Spd
km/h
Gust
km/h
Spd
kts
Gust
kts
20/11:30pm 21.0 18.2 12.7 59 4.7 S 19 32 10 17 1009.4 1009.2 0.2
20/11:00pm 22.0 20.3 12.5 54 5.4 S 13 20 7 11 1009.3 1009.1 0.2
20/10:30pm 22.4 20.7 12.4 53 5.7 SSW 13 24 7 13 1009.0 1008.8 0.2
20/10:00pm 22.8 21.0 12.1 51 6.1 SW 13 19 7 10 1008.5 1008.3 0.2
20/09:30pm 23.4 20.8 12.1 49 6.4 SW 17 26 9 14 1008.0 1007.8 0.2
20/09:00pm 23.9 20.9 12.5 49 6.6 SW 20 28 11 15 1007.6 1007.4 0.2
20/08:30pm 24.3 21.4 12.3 47 6.9 SW 19 32 10 17 1007.2 1007.0 0.2
20/08:00pm 25.0 21.6 12.6 46 7.2 SW 22 32 12 17 1006.7 1006.5 0.2
20/07:30pm 25.5 21.7 12.4 44 7.6 SW 24 35 13 19 1006.3 1006.0 0.2
20/07:00pm 26.0 21.9 11.4 40 8.3 SW 24 35 13 19 1006.0 1005.7 0.2
20/06:30pm 25.5 22.1 11.3 41 8.0 SW 20 30 11 16 1005.7 1005.4 0.2
20/06:00pm 23.6 22.5 14.3 56 5.5 S 13 26 7 14 1005.4 1005.1 0.2
20/05:30pm 24.6 22.2 14.4 53 6.1 WSW 20 52 11 28 1005.5 1005.2 0.0
20/05:00pm 23.8 21.3 14.2 55 5.7 SW 20 32 11 17 1005.4 1005.1 0.0
20/04:30pm 24.2 21.7 14.0 53 6.0 WSW 20 28 11 15 1005.0 1004.7 0.0
20/04:25pm 24.0 21.0 13.8 53 6.0 SW 22 35 12 19 1005.0 1004.7 0.0
20/04:11pm 23.4 20.0 13.8 54 5.6 SW 24 43 13 23 1005.0 1004.7 0.0
20/04:00pm 26.4 23.3 11.7 40 8.4 SW 19 30 10 16 1004.7 1004.4 0.0
20/03:30pm 26.4 24.0 12.5 42 8.1 SSW 17 28 9 15 1004.7 1004.4 0.0
20/03:00pm 26.3 23.1 12.0 41 8.3 SSW 20 43 11 23 1004.9 1004.6 0.0
20/02:30pm 25.1 21.6 12.3 45 7.4 SSW 22 35 12 19 1005.0 1004.7 0.0
20/02:00pm 25.1 21.9 13.0 47 7.1 SW 22 32 12 17 1005.1 1004.8 0.0
20/01:30pm 24.8 21.9 13.0 47 6.9 SW 20 32 11 17 1005.4 1005.1 0.0
20/01:00pm 24.3 21.7 13.8 52 6.2 SW 20 32 11 17 1005.5 1005.2 0.0
20/12:30pm 24.4 21.9 14.2 53 6.0 SW 20 33 11 18 1005.5 1005.2 0.0
20/12:00pm 22.9 20.3 13.9 57 5.3 SW 20 32 11 17 1005.8 1005.5 0.0
20/11:30am 22.8 20.5 14.1 58 5.1 SW 19 28 10 15 1005.8 1005.5 0.0
20/11:00am 22.1 20.5 14.0 60 4.7 SW 15 26 8 14 1005.8 1005.5 0.0
20/10:30am 20.8 18.3 14.0 65 3.9 SSW 20 32 11 17 1005.5 1005.2 0.0
20/10:00am 20.8 18.9 14.2 66 3.9 SSW 17 28 9 15 1005.2 1004.9 0.0
20/09:30am 20.2 17.9 14.1 68 3.5 SW 19 28 10 15 1005.3 1005.0 0.0
20/09:00am 18.5 16.3 14.4 77 2.4 SW 19 30 10 16 1005.3 1005.0 0.4
20/08:42am 17.9 16.2 14.6 81 1.9 SW 17 30 9 16 1005.3 1005.0 0.4
20/08:30am 17.6 15.9 14.7 83 1.7 WSW 17 26 9 14 1005.2 1004.9 0.4
20/08:07am 16.6 14.9 14.6 88 1.1 WSW 17 24 9 13 1004.8 1004.5 0.4
20/08:00am 16.2 14.8 14.6 90 0.9 WSW 15 24 8 13 1004.9 1004.6 0.4
20/07:30am 15.6 14.5 14.3 92 0.7 WSW 13 19 7 10 1004.9 1004.6 0.4
20/07:27am 15.5 14.4 14.4 93 0.6 WSW 13 19 7 10 1004.9 1004.6 0.4
20/07:00am 15.4 13.9 14.3 93 0.6 WSW 15 22 8 12 1004.3 1004.0 0.4
20/06:30am 15.3 13.3 13.8 91 0.8 WSW 17 24 9 13 1004.2 1003.9 0.4
20/06:00am 15.1 13.7 13.3 89 1.0 W 13 20 7 11 1003.9 1003.6 0.4
20/05:30am 15.1 13.2 13.0 87 1.2 W 15 19 8 10 1004.0 1003.7 0.4
20/05:00am 15.1 13.4 12.4 84 1.5 W 13 20 7 11 1004.0 1003.7 0.4
20/04:30am 15.1 13.7 12.1 82 1.6 W 11 17 6 9 1004.0 1003.7 0.4
20/04:00am 15.3 14.2 11.9 80 1.9 W 9 13 5 7 1004.2 1003.9 0.4
20/03:30am 15.5 13.9 11.5 77 2.2 W 11 17 6 9 1004.1 1003.8 0.4
20/03:00am 15.8 14.0 11.0 73 2.6 W 11 17 6 9 1004.8 1004.5 0.4
20/02:30am 16.4 14.6 10.9 70 2.9 W 11 15 6 8 1005.1 1004.8 0.4
20/02:00am 16.8 15.4 10.9 68 3.2 W 9 13 5 7 1005.1 1004.8 0.4
20/01:30am 17.1 15.2 10.5 65 3.5 WSW 11 17 6 9 1005.5 1005.2 0.4
20/01:00am 17.6 16.0 10.2 62 4.0 W 9 13 5 7 1005.6 1005.3 0.4
20/12:30am 17.9 16.6 9.8 59 4.3 WNW 7 11 4 6 1005.6 1005.3 0.4
20/12:00am 18.5 16.9 10.1 58 4.5 W 9 17 5 9 1005.3 1005.0 0.4
 
Date/Time
EDT
Temp
°C
App
Temp
°C
Dew
Point
°C
Rel
Hum
%
Delta-T
°C
Wind Press
QNH
hPa
Press
MSL
hPa
Rain since
9am
mm
Dir  Spd
km/h
Gust
km/h
Spd
kts
Gust
kts
19/11:30pm 18.6 17.1 10.7 60 4.3 W 9 13 5 7 1005.4 1005.1 0.4
19/11:00pm 18.9 18.3 12.2 65 3.7 WNW 7 9 4 5 1005.7 1005.4 0.4
19/10:30pm 19.2 18.1 12.0 63 4.0 SW 9 13 5 7 1005.4 1005.1 0.4
19/10:00pm 19.7 18.3 12.2 62 4.2 SSW 11 17 6 9 1005.3 1005.0 0.4
19/09:30pm 19.9 17.6 11.9 60 4.5 SSW 15 24 8 13 1005.2 1004.9 0.4
19/09:00pm 20.3 17.5 11.5 57 4.9 SW 17 24 9 13 1005.1 1004.8 0.4
19/08:30pm 20.7 17.3 11.3 55 5.2 SW 20 33 11 18 1004.9 1004.6 0.4
19/08:00pm 21.7 19.4 11.7 53 5.6 SW 15 22 8 12 1004.7 1004.4 0.4
19/07:30pm 22.1 19.1 12.4 54 5.5 SW 20 32 11 17 1004.2 1003.9 0.4
19/07:10pm 22.0 19.6 12.8 56 5.3 SW 17 28 9 15 1003.9 1003.6 0.4
19/07:00pm 22.2 20.3 14.1 60 4.8 SW 17 24 9 13 1003.8 1003.5 0.4
19/06:30pm 20.3 18.6 13.7 66 3.8 SW 15 22 8 12 1003.7 1003.4 0.4
19/06:00pm 19.9 15.5 12.9 64 4.0 WSW 28 46 15 25 1004.0 1003.7 0.2
19/05:47pm 23.7 18.0 8.2 37 8.2 WSW 28 46 15 25 1004.0 1003.7 0.0
19/05:46pm 24.0 18.6 8.0 36 8.5 WSW 26 44 14 24 1004.1 1003.8 0.0
19/05:30pm 25.2 20.8 7.3 32 9.4 WSW 20 32 11 17 1003.7 1003.4 0.0
19/05:08pm 24.9 19.3 8.8 36 8.7 WSW 28 44 15 24 1003.9 1003.6 0.0
19/05:00pm 24.8 19.3 7.4 33 9.2 WSW 26 43 14 23 1004.0 1003.7 0.0
19/04:30pm 25.7 19.2 8.2 33 9.4 WSW 32 50 17 27 1003.8 1003.5 0.0
19/04:29pm 26.0 19.8 8.0 32 9.7 WSW 30 50 16 27 1003.8 1003.5 0.0
19/04:24pm 26.9 21.1 7.9 30 10.2 WSW 28 44 15 24 1003.8 1003.5 0.0
19/04:00pm 28.4 24.4 6.5 25 11.6 WSW 17 26 9 14 1003.6 1003.3 0.0
19/03:30pm 28.1 23.4 6.2 25 11.5 WSW 20 32 11 17 1003.7 1003.4 0.0
19/03:00pm 29.6 25.8 7.5 25 12.0 SW 17 28 9 15 1003.9 1003.6 0.0
19/02:30pm 28.6 24.5 7.8 27 11.3 WSW 19 28 10 15 1004.2 1003.9 0.0
19/02:00pm 27.9 23.5 6.6 26 11.3 WSW 19 24 10 13 1004.6 1004.3 0.0
19/01:30pm 27.1 23.2 8.5 31 10.1 WSW 19 28 10 15 1004.9 1004.6 0.0
19/01:00pm 27.9 24.5 7.7 28 10.9 W 15 22 8 12 1005.1 1004.8 0.0
19/12:30pm 27.2 23.7 7.1 28 10.7 WSW 15 24 8 13 1005.5 1005.2 0.0
19/12:00pm 26.5 23.3 8.5 32 9.8 WSW 15 22 8 12 1005.6 1005.3 0.0
19/11:30am 25.9 23.4 9.7 36 8.9 W 13 20 7 11 1005.9 1005.6 0.0
19/11:00am 23.8 20.9 9.8 41 7.7 WSW 15 24 8 13 1006.1 1005.8 0.0
19/10:30am 21.7 19.7 10.2 48 6.3 W 11 17 6 9 1006.4 1006.1 0.0
19/10:00am 20.6 18.8 9.5 49 6.0 W 9 15 5 8 1006.3 1006.0 0.0
19/09:30am 19.6 17.4 9.5 52 5.4 SW 11 17 6 9 1006.3 1006.0 0.0
19/09:00am 18.4 16.1 8.9 54 5.0 SW 11 15 6 8 1006.3 1006.0 0.0
19/08:30am 18.2 15.8 8.5 53 5.0 SW 11 17 6 9 1006.2 1005.9 0.0
19/08:00am 16.4 14.3 6.8 53 4.8 WSW 7 13 4 7 1006.2 1005.9 0.0
19/07:30am 15.4 13.4 6.2 54 4.5 SW 6 7 3 4 1005.9 1005.6 0.0
19/07:00am 14.3 12.0 5.9 57 4.0 SW 7 9 4 5 1005.8 1005.5 0.0
19/06:30am 14.1 11.4 5.5 56 4.1 WSW 9 11 5 6 1005.6 1005.3 0.0
19/06:00am 14.3 11.5 5.1 54 4.3 WSW 9 11 5 6 1005.4 1005.1 0.0
19/05:30am 14.9 12.0 4.9 51 4.7 WSW 9 13 5 7 1005.2 1004.9 0.0
19/05:00am 15.9 13.0 6.3 53 4.7 W 11 20 6 11 1005.0 1004.7 0.0
19/04:30am 16.9 14.5 7.0 52 4.9 SSW 9 13 5 7 1004.6 1004.3 0.0
19/04:00am 17.7 15.0 7.2 50 5.3 S 11 15 6 8 1004.6 1004.3 0.0
19/03:30am 18.1 15.2 6.6 47 5.7 S 11 17 6 9 1004.7 1004.4 0.0
19/03:00am 18.3 14.8 5.5 43 6.3 SSW 13 19 7 10 1004.9 1004.6 0.0
19/02:30am 18.8 15.6 5.3 41 6.6 S 11 17 6 9 1005.2 1004.9 0.0
19/02:00am 18.3 15.4 4.5 40 6.6 SSW 9 13 5 7 1005.4 1005.1 0.0
19/01:30am 18.8 15.5 2.6 34 7.5 S 9 13 5 7 1005.6 1005.3 0.0
19/01:00am 19.4 16.0 1.9 31 8.0 SW 9 15 5 8 1005.9 1005.6 0.0
19/12:30am 17.6 16.5 5.2 44 6.0 CALM 0 0 0 0 1005.8 1005.5 0.0
19/12:00am 18.1 16.8 3.9 39 6.7 CALM 0 0 0 0 1005.8 1005.5 0.0
 
Date/Time
EDT
Temp
°C
App
Temp
°C
Dew
Point
°C
Rel
Hum
%
Delta-T
°C
Wind Press
QNH
hPa
Press
MSL
hPa
Rain since
9am
mm
Dir  Spd
km/h
Gust
km/h
Spd
kts
Gust
kts
18/11:30pm 19.1 17.0 3.7 36 7.3 WNW 4 6 2 3 1006.1 1005.8 0.0
18/11:00pm 20.8 18.3 4.0 33 8.1 WNW 6 7 3 4 1006.2 1005.9 0.0
18/10:30pm 20.7 17.9 3.4 32 8.2 NW 7 9 4 5 1006.2 1005.9 0.0
18/10:00pm 21.4 20.3 4.9 34 8.2 CALM 0 0 0 0 1006.0 1005.7 0.0
18/09:30pm 23.1 21.9 4.6 30 9.2 CALM 0 0 0 0 1005.8 1005.5 0.0
18/09:00pm 24.8 21.9 4.5 27 10.2 NE 9 9 5 5 1005.5 1005.2 0.0
18/08:30pm 26.8 23.3 3.3 22 11.7 NNE 11 13 6 7 1005.5 1005.2 0.0
18/08:00pm 27.9 23.9 2.9 20 12.4 NNE 13 17 7 9 1005.4 1005.1 0.0
18/07:30pm 28.3 25.0 2.5 19 12.7 NNE 9 15 5 8 1005.2 1004.9 0.0
18/07:00pm 28.6 25.2 2.0 18 13.1 NNE 9 17 5 9 1005.1 1004.8 0.0
18/06:30pm 28.8 25.6 2.9 19 12.9 N 9 15 5 8 1005.3 1005.0 0.0
18/06:00pm 28.1 24.1 3.0 20 12.5 E 13 17 7 9 1005.4 1005.1 0.0
18/05:30pm 28.5 24.9 2.7 19 12.8 NNW 11 20 6 11 1005.7 1005.4 0.0
18/05:00pm 27.6 24.1 3.3 21 12.2 N 11 17 6 9 1005.9 1005.6 0.0
18/04:30pm 28.2 25.7 4.5 22 12.1 N 7 13 4 7 1006.1 1005.8 0.0
18/04:00pm 27.0 24.3 3.5 22 11.7 N 7 13 4 7 1006.4 1006.1 0.0
18/03:30pm 27.6 25.1 4.0 22 11.9 NE 6 15 3 8 1006.7 1006.5 0.0
18/03:00pm 27.7 25.6 4.1 22 12.0 W 4 13 2 7 1007.0 1006.8 0.0
18/02:30pm 26.6 24.3 5.0 25 11.0 NE 6 11 3 6 1007.5 1007.3 0.0
18/02:00pm 26.3 23.9 5.3 26 10.8 SE 7 15 4 8 1008.0 1007.8 0.0
18/01:30pm 26.0 22.8 5.0 26 10.7 SW 11 19 6 10 1008.5 1008.3 0.0
18/01:00pm 25.8 23.2 5.9 28 10.3 SSW 9 19 5 10 1008.6 1008.4 0.0
18/12:30pm 26.2 23.1 5.7 27 10.6 SSE 11 20 6 11 1008.7 1008.5 0.0
18/12:00pm 25.5 22.3 6.7 30 9.8 SSW 13 19 7 10 1009.0 1008.8 0.0
18/11:30am 25.5 22.6 6.7 30 9.8 SSE 11 19 6 10 1009.1 1008.9 0.0
18/11:00am 24.7 21.7 7.8 34 9.0 SSE 13 20 7 11 1009.2 1009.0 0.0
18/10:30am 23.6 21.3 10.3 43 7.3 SSE 13 19 7 10 1009.5 1009.3 0.0
18/10:00am 23.0 21.0 11.4 48 6.5 SE 13 20 7 11 1009.7 1009.5 0.0
18/09:30am 20.9 18.5 11.5 55 5.2 SE 15 22 8 12 1009.7 1009.5 0.0
18/09:00am 18.8 15.9 10.9 60 4.3 S 17 22 9 12 1009.7 1009.5 0.0
18/08:30am 17.7 15.1 10.6 63 3.8 SSE 15 20 8 11 1009.8 1009.6 0.0
18/08:00am 16.3 14.0 10.4 68 3.1 S 13 22 7 12 1009.5 1009.3 0.0
18/07:30am 15.2 12.8 10.0 71 2.7 S 13 19 7 10 1009.4 1009.2 0.0
18/07:00am 14.6 12.5 9.8 73 2.5 S 11 17 6 9 1009.3 1009.1 0.0
18/06:30am 14.8 12.7 9.6 71 2.7 S 11 17 6 9 1009.1 1008.9 0.0
18/06:00am 15.4 13.3 9.7 69 3.0 S 11 19 6 10 1008.7 1008.5 0.0
18/05:30am 15.8 13.6 9.5 66 3.3 S 11 17 6 9 1008.3 1008.1 0.0
18/05:00am 16.2 13.6 9.4 64 3.5 S 13 17 7 9 1008.2 1008.0 0.0

Other formats

Comma delimited format used in spreadsheet applications
http://www.bom.gov.au/fwo/IDV60801/IDV60801.94693.axf

JavaScript Object Notation format (JSON) in row-major order
http://www.bom.gov.au/fwo/IDV60801/IDV60801.94693.json

Data quality

Most of these data are generated automatically and are frequently updated. Quality checks on data are not normally performed. It is possible for incorrect values to appear. Refer to information at About Latest Weather Observations and please check the disclaimer before using these data.